sensor_id;sensor_type;location;lat;lon;timestamp;temperature;humidity
1063;DHT22;520;50.932;6.962;2023-02-12T00:02:04;10.20;99.90
1063;DHT22;520;50.932;6.962;2023-02-12T00:04:30;10.30;99.90
1063;DHT22;520;50.932;6.962;2023-02-12T00:06:57;10.40;99.90
1063;DHT22;520;50.932;6.962;2023-02-12T00:09:24;10.30;99.90
1063;DHT22;520;50.932;6.962;2023-02-12T00:11:50;10.30;99.90
1063;DHT22;520;50.932;6.962;2023-02-12T00:14:17;10.20;99.90
1063;DHT22;520;50.932;6.962;2023-02-12T00:16:44;10.20;99.90
1063;DHT22;520;50.932;6.962;2023-02-12T00:19:10;10.10;99.90
1063;DHT22;520;50.932;6.962;2023-02-12T00:21:37;10.20;99.90
1063;DHT22;520;50.932;6.962;2023-02-12T00:24:03;10.20;99.90
1063;DHT22;520;50.932;6.962;2023-02-12T00:26:30;10.10;99.90
1063;DHT22;520;50.932;6.962;2023-02-12T00:28:57;10.10;99.90
1063;DHT22;520;50.932;6.962;2023-02-12T00:31:26;9.90;99.90
1063;DHT22;520;50.932;6.962;2023-02-12T00:33:54;9.70;99.90
1063;DHT22;520;50.932;6.962;2023-02-12T00:36:24;9.70;99.90
1063;DHT22;520;50.932;6.962;2023-02-12T00:38:53;9.60;99.90
1063;DHT22;520;50.932;6.962;2023-02-12T00:41:20;9.50;99.90
1063;DHT22;520;50.932;6.962;2023-02-12T00:43:48;9.50;99.90
1063;DHT22;520;50.932;6.962;2023-02-12T00:46:15;9.50;99.90
1063;DHT22;520;50.932;6.962;2023-02-12T00:48:42;9.70;99.90
1063;DHT22;520;50.932;6.962;2023-02-12T00:51:08;10.10;99.90
1063;DHT22;520;50.932;6.962;2023-02-12T00:53:35;10.00;99.90
1063;DHT22;520;50.932;6.962;2023-02-12T00:56:02;9.90;99.90
1063;DHT22;520;50.932;6.962;2023-02-12T00:58:29;9.70;99.90
1063;DHT22;520;50.932;6.962;2023-02-12T01:00:55;9.80;99.90
1063;DHT22;520;50.932;6.962;2023-02-12T01:03:23;10.10;99.90
1063;DHT22;520;50.932;6.962;2023-02-12T01:05:49;10.20;99.90
1063;DHT22;520;50.932;6.962;2023-02-12T01:08:16;10.30;99.90
1063;DHT22;520;50.932;6.962;2023-02-12T01:10:43;10.30;99.90
1063;DHT22;520;50.932;6.962;2023-02-12T01:13:14;10.10;99.90
1063;DHT22;520;50.932;6.962;2023-02-12T01:15:41;9.90;99.90
1063;DHT22;520;50.932;6.962;2023-02-12T01:27:30;10.30;99.90
1063;DHT22;520;50.932;6.962;2023-02-12T01:33:58;10.20;99.90
1063;DHT22;520;50.932;6.962;2023-02-12T01:37:05;10.00;99.90
1063;DHT22;520;50.932;6.962;2023-02-12T01:39:57;9.90;99.90
1063;DHT22;520;50.932;6.962;2023-02-12T01:43:00;9.90;99.90
1063;DHT22;520;50.932;6.962;2023-02-12T01:45:58;9.90;99.90
1063;DHT22;520;50.932;6.962;2023-02-12T01:48:49;10.00;99.90
1063;DHT22;520;50.932;6.962;2023-02-12T01:51:54;10.00;99.90
1063;DHT22;520;50.932;6.962;2023-02-12T01:55:11;9.90;99.90
1063;DHT22;520;50.932;6.962;2023-02-12T01:57:51;9.80;99.90
1063;DHT22;520;50.932;6.962;2023-02-12T02:00:46;9.80;99.90
1063;DHT22;520;50.932;6.962;2023-02-12T02:03:31;9.70;99.90
1063;DHT22;520;50.932;6.962;2023-02-12T02:06:30;9.60;99.90
1063;DHT22;520;50.932;6.962;2023-02-12T02:09:19;9.60;99.90
1063;DHT22;520;50.932;6.962;2023-02-12T02:12:12;9.60;99.90
1063;DHT22;520;50.932;6.962;2023-02-12T02:15:13;9.60;99.90
1063;DHT22;520;50.932;6.962;2023-02-12T02:18:06;9.60;99.90
1063;DHT22;520;50.932;6.962;2023-02-12T02:27:11;9.70;99.90
1063;DHT22;520;50.932;6.962;2023-02-12T02:46:16;9.10;99.90
1063;DHT22;520;50.932;6.962;2023-02-12T02:49:36;9.00;99.90
1063;DHT22;520;50.932;6.962;2023-02-12T02:52:40;9.30;99.90
1063;DHT22;520;50.932;6.962;2023-02-12T02:55:25;9.50;99.90
1063;DHT22;520;50.932;6.962;2023-02-12T02:58:10;9.60;99.90
1063;DHT22;520;50.932;6.962;2023-02-12T03:04:30;9.80;99.90
1063;DHT22;520;50.932;6.962;2023-02-12T03:08:19;9.80;99.90
1063;DHT22;520;50.932;6.962;2023-02-12T03:11:11;9.90;99.90
1063;DHT22;520;50.932;6.962;2023-02-12T03:14:20;9.90;99.90
1063;DHT22;520;50.932;6.962;2023-02-12T03:17:33;9.80;99.90
1063;DHT22;520;50.932;6.962;2023-02-12T03:20:49;9.90;99.90
1063;DHT22;520;50.932;6.962;2023-02-12T03:24:08;10.00;99.90
1063;DHT22;520;50.932;6.962;2023-02-12T03:27:14;10.00;99.90
1063;DHT22;520;50.932;6.962;2023-02-12T03:30:01;9.80;99.90
1063;DHT22;520;50.932;6.962;2023-02-12T03:36:18;9.30;99.90
1063;DHT22;520;50.932;6.962;2023-02-12T03:38:58;9.30;99.90
1063;DHT22;520;50.932;6.962;2023-02-12T03:44:52;9.60;99.90
1063;DHT22;520;50.932;6.962;2023-02-12T03:47:47;9.60;99.90
1063;DHT22;520;50.932;6.962;2023-02-12T03:53:48;9.60;99.90
1063;DHT22;520;50.932;6.962;2023-02-12T04:00:02;9.40;99.90
1063;DHT22;520;50.932;6.962;2023-02-12T04:02:51;9.50;99.90
1063;DHT22;520;50.932;6.962;2023-02-12T04:05:45;9.40;99.90
1063;DHT22;520;50.932;6.962;2023-02-12T04:08:34;9.30;99.90
1063;DHT22;520;50.932;6.962;2023-02-12T04:14:47;9.40;99.90
1063;DHT22;520;50.932;6.962;2023-02-12T04:17:56;9.50;99.90
1063;DHT22;520;50.932;6.962;2023-02-12T04:25:07;9.40;99.90
1063;DHT22;520;50.932;6.962;2023-02-12T04:38:57;9.40;99.90
1063;DHT22;520;50.932;6.962;2023-02-12T04:41:48;9.50;99.90
1063;DHT22;520;50.932;6.962;2023-02-12T04:48:19;9.40;99.90
1063;DHT22;520;50.932;6.962;2023-02-12T04:51:55;9.30;99.90
1063;DHT22;520;50.932;6.962;2023-02-12T04:54:46;9.30;99.90
1063;DHT22;520;50.932;6.962;2023-02-12T04:58:02;9.30;99.90
1063;DHT22;520;50.932;6.962;2023-02-12T05:00:41;9.10;99.90
1063;DHT22;520;50.932;6.962;2023-02-12T05:04:21;9.10;99.90
1063;DHT22;520;50.932;6.962;2023-02-12T05:07:12;9.40;99.90
1063;DHT22;520;50.932;6.962;2023-02-12T05:12:55;9.50;99.90
1063;DHT22;520;50.932;6.962;2023-02-12T05:15:43;9.40;99.90
1063;DHT22;520;50.932;6.962;2023-02-12T05:18:25;9.40;99.90
1063;DHT22;520;50.932;6.962;2023-02-12T05:21:09;9.40;99.90
1063;DHT22;520;50.932;6.962;2023-02-12T05:23:55;9.30;99.90
1063;DHT22;520;50.932;6.962;2023-02-12T05:26:44;9.30;99.90
1063;DHT22;520;50.932;6.962;2023-02-12T06:57:18;9.20;99.90
1063;DHT22;520;50.932;6.962;2023-02-12T07:26:50;9.30;99.90
1063;DHT22;520;50.932;6.962;2023-02-12T07:29:45;9.30;99.90
1063;DHT22;520;50.932;6.962;2023-02-12T08:39:22;9.20;99.90
1063;DHT22;520;50.932;6.962;2023-02-12T08:54:31;9.50;99.90
1063;DHT22;520;50.932;6.962;2023-02-12T10:51:33;11.00;99.90
1063;DHT22;520;50.932;6.962;2023-02-12T10:54:46;11.00;99.90
1063;DHT22;520;50.932;6.962;2023-02-12T10:57:46;11.10;99.90
1063;DHT22;520;50.932;6.962;2023-02-12T11:01:24;11.10;99.90
1063;DHT22;520;50.932;6.962;2023-02-12T11:04:44;10.80;99.90
1063;DHT22;520;50.932;6.962;2023-02-12T11:08:04;11.10;99.90
1063;DHT22;520;50.932;6.962;2023-02-12T11:14:39;11.70;99.90
1063;DHT22;520;50.932;6.962;2023-02-12T11:21:12;11.50;99.90
1063;DHT22;520;50.932;6.962;2023-02-12T11:31:25;11.50;99.90
1063;DHT22;520;50.932;6.962;2023-02-12T11:34:52;11.30;99.90
1063;DHT22;520;50.932;6.962;2023-02-12T11:38:14;11.00;99.90
1063;DHT22;520;50.932;6.962;2023-02-12T11:48:58;11.80;99.90
1063;DHT22;520;50.932;6.962;2023-02-12T11:52:17;11.90;99.90
1063;DHT22;520;50.932;6.962;2023-02-12T11:59:03;11.80;99.90
1063;DHT22;520;50.932;6.962;2023-02-12T12:02:23;11.70;99.90
1063;DHT22;520;50.932;6.962;2023-02-12T12:06:08;12.10;99.90
1063;DHT22;520;50.932;6.962;2023-02-12T12:12:55;11.90;99.80
1063;DHT22;520;50.932;6.962;2023-02-12T12:19:15;12.30;99.70
1063;DHT22;520;50.932;6.962;2023-02-12T12:23:02;12.40;98.90
1063;DHT22;520;50.932;6.962;2023-02-12T12:26:02;12.20;99.00
1063;DHT22;520;50.932;6.962;2023-02-12T12:29:23;12.00;99.60
1063;DHT22;520;50.932;6.962;2023-02-12T12:32:18;12.30;99.10
1063;DHT22;520;50.932;6.962;2023-02-12T13:36:30;13.10;97.10
1063;DHT22;520;50.932;6.962;2023-02-12T13:39:53;13.30;96.70
1063;DHT22;520;50.932;6.962;2023-02-12T13:57:33;12.70;97.70
1063;DHT22;520;50.932;6.962;2023-02-12T14:10:38;12.70;97.60
1063;DHT22;520;50.932;6.962;2023-02-12T14:17:23;12.80;97.80
1063;DHT22;520;50.932;6.962;2023-02-12T14:27:34;12.80;98.60
1063;DHT22;520;50.932;6.962;2023-02-12T14:30:37;13.00;98.10
1063;DHT22;520;50.932;6.962;2023-02-12T14:33:34;13.00;97.60
1063;DHT22;520;50.932;6.962;2023-02-12T14:36:36;12.90;97.90
1063;DHT22;520;50.932;6.962;2023-02-12T15:01:17;12.30;99.20
1063;DHT22;520;50.932;6.962;2023-02-12T15:31:29;12.60;98.30
1063;DHT22;520;50.932;6.962;2023-02-12T15:46:14;12.80;97.90
1063;DHT22;520;50.932;6.962;2023-02-12T15:56:55;12.40;98.60
1063;DHT22;520;50.932;6.962;2023-02-12T16:00:49;12.70;98.40
1063;DHT22;520;50.932;6.962;2023-02-12T16:04:38;12.60;97.90
1063;DHT22;520;50.932;6.962;2023-02-12T16:08:19;12.50;98.10
1063;DHT22;520;50.932;6.962;2023-02-12T16:11:32;12.60;98.10
1063;DHT22;520;50.932;6.962;2023-02-12T16:18:13;12.40;98.80
1063;DHT22;520;50.932;6.962;2023-02-12T16:55:54;12.20;99.30
1063;DHT22;520;50.932;6.962;2023-02-12T17:08:16;12.30;98.90
1063;DHT22;520;50.932;6.962;2023-02-12T17:11:47;12.10;99.20
1063;DHT22;520;50.932;6.962;2023-02-12T17:40:44;12.00;99.70
1063;DHT22;520;50.932;6.962;2023-02-12T17:47:30;12.20;99.80
1063;DHT22;520;50.932;6.962;2023-02-12T17:57:59;12.10;99.60
1063;DHT22;520;50.932;6.962;2023-02-12T18:04:35;12.30;99.50
1063;DHT22;520;50.932;6.962;2023-02-12T18:08:05;12.30;99.40
1063;DHT22;520;50.932;6.962;2023-02-12T18:11:54;12.20;99.40
1063;DHT22;520;50.932;6.962;2023-02-12T18:22:58;12.20;99.30
1063;DHT22;520;50.932;6.962;2023-02-12T18:31:40;12.30;99.50
1063;DHT22;520;50.932;6.962;2023-02-12T18:34:28;12.20;99.40
1063;DHT22;520;50.932;6.962;2023-02-12T18:37:48;12.20;99.60
1063;DHT22;520;50.932;6.962;2023-02-12T18:41:11;12.10;99.90
1063;DHT22;520;50.932;6.962;2023-02-12T18:44:21;12.10;99.60
1063;DHT22;520;50.932;6.962;2023-02-12T18:47:14;12.00;99.80
1063;DHT22;520;50.932;6.962;2023-02-12T18:53:04;12.00;99.90
1063;DHT22;520;50.932;6.962;2023-02-12T18:56:01;12.00;99.90
1063;DHT22;520;50.932;6.962;2023-02-12T18:59:00;12.10;99.80
1063;DHT22;520;50.932;6.962;2023-02-12T19:24:27;11.80;99.90
1063;DHT22;520;50.932;6.962;2023-02-12T19:27:38;11.80;99.90
1063;DHT22;520;50.932;6.962;2023-02-12T19:33:31;11.70;99.90
1063;DHT22;520;50.932;6.962;2023-02-12T19:40:34;11.50;99.90
1063;DHT22;520;50.932;6.962;2023-02-12T19:43:33;11.60;99.90
1063;DHT22;520;50.932;6.962;2023-02-12T19:46:27;11.70;99.90
1063;DHT22;520;50.932;6.962;2023-02-12T19:49:24;11.70;99.90
1063;DHT22;520;50.932;6.962;2023-02-12T19:52:29;11.60;99.90
1063;DHT22;520;50.932;6.962;2023-02-12T19:55:05;11.60;99.90
1063;DHT22;520;50.932;6.962;2023-02-12T19:58:00;11.70;99.90
1063;DHT22;520;50.932;6.962;2023-02-12T20:00:44;11.80;99.90
1063;DHT22;520;50.932;6.962;2023-02-12T20:03:19;11.70;99.90
1063;DHT22;520;50.932;6.962;2023-02-12T20:06:02;11.60;99.90
1063;DHT22;520;50.932;6.962;2023-02-12T20:08:49;11.60;99.90
1063;DHT22;520;50.932;6.962;2023-02-12T20:11:22;11.60;99.90
1063;DHT22;520;50.932;6.962;2023-02-12T20:14:14;11.50;99.90
1063;DHT22;520;50.932;6.962;2023-02-12T20:17:05;11.50;99.90
1063;DHT22;520;50.932;6.962;2023-02-12T20:19:52;11.50;99.90
1063;DHT22;520;50.932;6.962;2023-02-12T20:22:19;11.50;99.90
1063;DHT22;520;50.932;6.962;2023-02-12T20:24:56;11.30;99.90
1063;DHT22;520;50.932;6.962;2023-02-12T20:27:31;11.40;99.90
1063;DHT22;520;50.932;6.962;2023-02-12T20:30:13;11.40;99.90
1063;DHT22;520;50.932;6.962;2023-02-12T20:32:50;11.30;99.90
1063;DHT22;520;50.932;6.962;2023-02-12T20:35:53;11.30;99.90
1063;DHT22;520;50.932;6.962;2023-02-12T20:38:35;11.40;99.90
1063;DHT22;520;50.932;6.962;2023-02-12T20:41:14;11.50;99.90
1063;DHT22;520;50.932;6.962;2023-02-12T20:43:58;11.40;99.90
1063;DHT22;520;50.932;6.962;2023-02-12T20:46:45;11.20;99.90
1063;DHT22;520;50.932;6.962;2023-02-12T20:49:24;11.30;99.90
1063;DHT22;520;50.932;6.962;2023-02-12T20:52:15;11.20;99.90
1063;DHT22;520;50.932;6.962;2023-02-12T20:54:57;11.30;99.90
1063;DHT22;520;50.932;6.962;2023-02-12T20:58:11;11.20;99.90
1063;DHT22;520;50.932;6.962;2023-02-12T21:00:38;11.30;99.90
1063;DHT22;520;50.932;6.962;2023-02-12T21:03:18;11.30;99.90
1063;DHT22;520;50.932;6.962;2023-02-12T21:05:49;11.40;99.90
1063;DHT22;520;50.932;6.962;2023-02-12T21:08:40;11.30;99.90
1063;DHT22;520;50.932;6.962;2023-02-12T21:11:40;11.30;99.90
1063;DHT22;520;50.932;6.962;2023-02-12T21:14:12;11.30;99.90
1063;DHT22;520;50.932;6.962;2023-02-12T21:16:50;11.30;99.90
1063;DHT22;520;50.932;6.962;2023-02-12T21:19:28;11.10;99.90
1063;DHT22;520;50.932;6.962;2023-02-12T21:22:00;10.90;99.90
1063;DHT22;520;50.932;6.962;2023-02-12T21:32:43;11.10;99.90
1063;DHT22;520;50.932;6.962;2023-02-12T21:35:13;11.00;99.90
1063;DHT22;520;50.932;6.962;2023-02-12T21:38:01;11.20;99.90
1063;DHT22;520;50.932;6.962;2023-02-12T21:40:41;11.20;99.90
1063;DHT22;520;50.932;6.962;2023-02-12T21:43:15;11.20;99.90
1063;DHT22;520;50.932;6.962;2023-02-12T21:45:49;11.10;99.90
1063;DHT22;520;50.932;6.962;2023-02-12T21:48:31;11.10;99.90
1063;DHT22;520;50.932;6.962;2023-02-12T21:51:43;11.20;99.90
1063;DHT22;520;50.932;6.962;2023-02-12T21:54:18;11.20;99.90
1063;DHT22;520;50.932;6.962;2023-02-12T21:56:49;11.10;99.90
1063;DHT22;520;50.932;6.962;2023-02-12T21:59:29;11.00;99.90
1063;DHT22;520;50.932;6.962;2023-02-12T22:02:04;11.00;99.90
1063;DHT22;520;50.932;6.962;2023-02-12T22:04:40;10.90;99.90
1063;DHT22;520;50.932;6.962;2023-02-12T22:07:38;11.10;99.90
1063;DHT22;520;50.932;6.962;2023-02-12T22:10:20;11.10;99.90
1063;DHT22;520;50.932;6.962;2023-02-12T22:12:54;11.00;99.90
1063;DHT22;520;50.932;6.962;2023-02-12T22:15:33;10.90;99.90
1063;DHT22;520;50.932;6.962;2023-02-12T22:18:23;11.00;99.90
1063;DHT22;520;50.932;6.962;2023-02-12T22:21:11;11.10;99.90
1063;DHT22;520;50.932;6.962;2023-02-12T22:23:58;11.20;99.90
1063;DHT22;520;50.932;6.962;2023-02-12T22:26:59;11.00;99.90
1063;DHT22;520;50.932;6.962;2023-02-12T22:29:58;11.10;99.90
1063;DHT22;520;50.932;6.962;2023-02-12T22:32:43;11.10;99.90
1063;DHT22;520;50.932;6.962;2023-02-12T22:35:19;11.20;99.90
1063;DHT22;520;50.932;6.962;2023-02-12T22:37:50;11.10;99.90
1063;DHT22;520;50.932;6.962;2023-02-12T22:40:55;11.10;99.90
1063;DHT22;520;50.932;6.962;2023-02-12T22:43:34;10.80;99.90
1063;DHT22;520;50.932;6.962;2023-02-12T22:46:29;10.80;99.90
1063;DHT22;520;50.932;6.962;2023-02-12T22:49:17;10.90;99.90
1063;DHT22;520;50.932;6.962;2023-02-12T22:51:58;10.90;99.90
1063;DHT22;520;50.932;6.962;2023-02-12T22:54:45;10.80;99.90
1063;DHT22;520;50.932;6.962;2023-02-12T22:57:49;10.80;99.90
1063;DHT22;520;50.932;6.962;2023-02-12T23:00:31;10.80;99.90
1063;DHT22;520;50.932;6.962;2023-02-12T23:03:14;10.70;99.90
1063;DHT22;520;50.932;6.962;2023-02-12T23:05:52;10.90;99.90
1063;DHT22;520;50.932;6.962;2023-02-12T23:08:20;10.60;99.90
1063;DHT22;520;50.932;6.962;2023-02-12T23:10:53;10.90;99.90
1063;DHT22;520;50.932;6.962;2023-02-12T23:13:23;11.00;99.90
1063;DHT22;520;50.932;6.962;2023-02-12T23:16:15;10.90;99.90
1063;DHT22;520;50.932;6.962;2023-02-12T23:18:59;10.80;99.90
1063;DHT22;520;50.932;6.962;2023-02-12T23:21:32;10.60;99.90
1063;DHT22;520;50.932;6.962;2023-02-12T23:24:04;10.70;99.90
1063;DHT22;520;50.932;6.962;2023-02-12T23:27:14;10.70;99.90
1063;DHT22;520;50.932;6.962;2023-02-12T23:30:02;10.70;99.90
1063;DHT22;520;50.932;6.962;2023-02-12T23:36:02;10.40;99.90
1063;DHT22;520;50.932;6.962;2023-02-12T23:42:07;10.70;99.90
1063;DHT22;520;50.932;6.962;2023-02-12T23:45:07;10.80;99.90
1063;DHT22;520;50.932;6.962;2023-02-12T23:48:00;10.60;99.90
1063;DHT22;520;50.932;6.962;2023-02-12T23:50:44;10.70;99.90
1063;DHT22;520;50.932;6.962;2023-02-12T23:53:49;10.60;99.90
1063;DHT22;520;50.932;6.962;2023-02-12T23:56:16;10.80;99.90
1063;DHT22;520;50.932;6.962;2023-02-12T23:59:08;10.80;99.90
